Villa Nitza, Puerto Rico
Current Conditions -  °F | °C
As of 7:56 PM on Friday 19 Dec 2014 (Local Time) from TJSJ Reporting Station
Broken Clouds Broken Clouds  
Wind Chill: 79°   Ceiling: 7500
Heat Index: 82°   Visibility: 10mi
Dew Point: 71°   Wind: 5mph
Humidity: 77%   Direction: 80°E
Pressure: 29.99"   Gusts: NA
Location:  18.4259°N, 66.4717°W
Report Text: TJSJ 192356Z 08004KT 10SM FEW030 BKN075 26/22 A2999 RMK AO2 SLP156 T02610217 10289 20256 53012
Loading
Personal Weather Stations






























Interactive Weather Map New forecast layout! Learn more

10-Day Weather Forecast

Advertisements
Track Severe Weather on mobile